Lowlands Queen — 3FTU4 — position and weather

sailwx.info

Track history (hours):
 
Tides and Currents Weather Stations Pressure Air Temp Water Temp Dewpoint Dewpoint Depression Visibility Wind Speed Wind Dir Waves Ship Positions

Lowlands Queen

Last reported at 2015-Jan-31 03:31 UTC. Time now 2015-Jan-31 03:58 UTC.
Position N 41°03' W 073°14'.

Length 225 m; draft 14.3 m.

Type: Cargo ship. MMSI: 370913000.

Date/timePositionNaut miles runAvg speedWind from/ knotsBaromVisibWave heightAir tempDewpointWater temp
2015-Jan-31 03:31N 41°03' W 073°14'0 0.0
2015-Jan-31 02:31N 41°03' W 073°14'0 0.0
2015-Jan-31 01:31N 41°03' W 073°14'0 0.0
2015-Jan-31 00:31N 41°03' W 073°14'0 0.1
2015-Jan-30 23:31N 41°03' W 073°14'0 0.0
2015-Jan-30 22:28N 41°03' W 073°15'0 0.0
2015-Jan-30 21:31N 41°03' W 073°14'0 0.1
2015-Jan-30 20:31N 41°03' W 073°14'0 0.0
2015-Jan-30 19:31N 41°03' W 073°14'0 0.1
2015-Jan-30 18:31N 41°03' W 073°14'0 0.0
2015-Jan-30 17:31N 41°03' W 073°14'0 0.0
2015-Jan-30 16:31N 41°03' W 073°14'0 0.0
2015-Jan-30 15:31N 41°03' W 073°14'0 0.0
2015-Jan-30 14:31N 41°03' W 073°14'0 0.2
2015-Jan-30 13:28N 41°03' W 073°15'5 5.4
2015-Jan-30 12:33N 41°02' W 073°08'1312.8
2015-Jan-30 11:33N 41°05' W 072°52'1414.1
2015-Jan-30 10:33N 41°08' W 072°33'1515.1
2015-Jan-30 09:34N 41°13' W 072°14'1413.9
2015-Jan-30 08:34N 41°14' W 071°56'1313.4
2015-Jan-30 07:34N 41°18' W 071°39'8 7.5
2015-Jan-30 06:33N 41°17' W 071°29'4 3.6
2015-Jan-30 05:33N 41°17' W 071°24'3 3.4
2015-Jan-30 04:33N 41°14' W 071°21'5 5.4
2015-Jan-30 03:33N 41°08' W 071°21'9 9.3
2015-Jan-30 02:33N 40°59' W 071°23'1111.2
2015-Jan-30 01:33N 40°48' W 071°23'1312.9
2015-Jan-30 00:33N 40°35' W 071°25'9 8.8
2015-Jan-29 23:33N 40°26' W 071°26'1312.6
2015-Jan-29 22:33N 40°14' W 071°28'1212.3
2015-Jan-29 21:33N 40°02' W 071°30'1312.6
2015-Jan-29 20:34N 39°49' W 071°31'1312.5
2015-Jan-29 19:33N 39°37' W 071°32'1212.4
2015-Jan-29 18:33N 39°24' W 071°34'1512.4
2015-Jan-29 17:19N 39°09' W 071°36'  
Track history (hours):
 
Tides and Currents Weather Stations Pressure Air Temp Water Temp Dewpoint Dewpoint Depression Visibility Wind Speed Wind Dir Waves Ship Positions

Lowlands Queen

Last reported at 2015-Jan-31 03:31 UTC. Time now 2015-Jan-31 03:58 UTC.
Position N 41°03' W 073°14'.

Length 225 m; draft 14.3 m.

Type: Cargo ship. MMSI: 370913000.

Date/timePositionNaut miles runAvg speedWind from/ knotsBaromVisibWave heightAir tempDewpointWater temp
2015-Jan-31 03:31N 41°03' W 073°14'0 0.0
2015-Jan-31 02:31N 41°03' W 073°14'0 0.0
2015-Jan-31 01:31N 41°03' W 073°14'0 0.0
2015-Jan-31 00:31N 41°03' W 073°14'0 0.1
2015-Jan-30 23:31N 41°03' W 073°14'0 0.0
2015-Jan-30 22:28N 41°03' W 073°15'0 0.0
2015-Jan-30 21:31N 41°03' W 073°14'0 0.1
2015-Jan-30 20:31N 41°03' W 073°14'0 0.0
2015-Jan-30 19:31N 41°03' W 073°14'0 0.1
2015-Jan-30 18:31N 41°03' W 073°14'0 0.0
2015-Jan-30 17:31N 41°03' W 073°14'0 0.0
2015-Jan-30 16:31N 41°03' W 073°14'0 0.0
2015-Jan-30 15:31N 41°03' W 073°14'0 0.0
2015-Jan-30 14:31N 41°03' W 073°14'0 0.2
2015-Jan-30 13:28N 41°03' W 073°15'5 5.4
2015-Jan-30 12:33N 41°02' W 073°08'1312.8
2015-Jan-30 11:33N 41°05' W 072°52'1414.1
2015-Jan-30 10:33N 41°08' W 072°33'1515.1
2015-Jan-30 09:34N 41°13' W 072°14'1413.9
2015-Jan-30 08:34N 41°14' W 071°56'1313.4
2015-Jan-30 07:34N 41°18' W 071°39'8 7.5
2015-Jan-30 06:33N 41°17' W 071°29'4 3.6
2015-Jan-30 05:33N 41°17' W 071°24'3 3.4
2015-Jan-30 04:33N 41°14' W 071°21'5 5.4
2015-Jan-30 03:33N 41°08' W 071°21'9 9.3
2015-Jan-30 02:33N 40°59' W 071°23'1111.2
2015-Jan-30 01:33N 40°48' W 071°23'1312.9
2015-Jan-30 00:33N 40°35' W 071°25'9 8.8
2015-Jan-29 23:33N 40°26' W 071°26'1312.6
2015-Jan-29 22:33N 40°14' W 071°28'1212.3
2015-Jan-29 21:33N 40°02' W 071°30'1312.6
2015-Jan-29 20:34N 39°49' W 071°31'1312.5
2015-Jan-29 19:33N 39°37' W 071°32'1212.4
2015-Jan-29 18:33N 39°24' W 071°34'1512.4
2015-Jan-29 17:19N 39°09' W 071°36'  

Dump ship's entire track history